Time;durP1;ratioP1;P1;durP2;ratioP2;P2;SDS_P1;SDS_P2;PMS_P1;PMS_P2;Temp;Humidity;BMP_temperature;BMP_pressure;BME280_temperature;BME280_humidity;BME280_pressure;Samples;Min_cycle;Max_cycle;Signal;HPM_P1;HPM_P2
2022/01/10 00:02:14;;;;;;;12.25;6.15;;;;;;;0.20;100.00;98444.44;5111242;28;20513;-77
2022/01/10 00:04:41;;;;;;;9.95;6.68;;;;;;;0.27;100.00;98424.22;5110271;28;20054;-77
2022/01/10 00:07:08;;;;;;;9.63;6.20;;;;;;;0.30;100.00;98433.75;5110027;28;20413;-77
2022/01/10 00:09:35;;;;;;;16.05;6.70;;;;;;;0.28;100.00;98443.75;5094407;28;20044;-77
2022/01/10 00:12:02;;;;;;;18.58;7.40;;;;;;;0.17;100.00;98442.88;5109457;28;20054;-77
2022/01/10 00:14:30;;;;;;;14.27;6.85;;;;;;;0.13;100.00;98446.81;5106531;28;20051;-77
2022/01/10 00:16:57;;;;;;;15.75;7.85;;;;;;;0.27;100.00;98461.63;5099078;28;20053;-78
2022/01/10 00:19:24;;;;;;;17.58;7.72;;;;;;;0.29;100.00;98473.03;5104936;28;20050;-78
2022/01/10 00:21:51;;;;;;;12.80;7.30;;;;;;;0.18;100.00;98443.72;5093740;28;20087;-78
2022/01/10 00:24:18;;;;;;;12.90;6.85;;;;;;;0.20;100.00;98457.81;5101079;28;20043;-77
2022/01/10 00:26:45;;;;;;;13.10;7.38;;;;;;;0.37;100.00;98477.69;5092324;28;20494;-78
2022/01/10 00:29:12;;;;;;;12.80;6.82;;;;;;;0.41;100.00;98473.78;5092078;28;20048;-77
2022/01/10 00:31:40;;;;;;;16.83;7.05;;;;;;;0.29;100.00;98459.66;5099666;28;20082;-77
2022/01/10 00:34:07;;;;;;;11.57;6.82;;;;;;;0.39;100.00;98469.53;5107511;28;20127;-78
2022/01/10 00:36:34;;;;;;;11.48;7.07;;;;;;;0.26;100.00;98461.78;5092787;28;20052;-77
2022/01/10 00:39:01;;;;;;;10.05;6.40;;;;;;;0.22;100.00;98463.03;5090668;28;20056;-77
2022/01/10 00:41:28;;;;;;;11.18;6.15;;;;;;;0.31;100.00;98480.91;5100076;28;20044;-77
2022/01/10 00:43:55;;;;;;;10.10;6.47;;;;;;;0.16;100.00;98456.38;5099631;28;20051;-77
2022/01/10 00:46:22;;;;;;;11.10;6.35;;;;;;;0.25;100.00;98476.94;5097016;28;20040;-77
2022/01/10 00:48:50;;;;;;;12.48;5.88;;;;;;;0.24;100.00;98479.75;5109949;28;20048;-78
2022/01/10 00:51:17;;;;;;;13.32;6.25;;;;;;;0.27;100.00;98471.47;5114309;28;20102;-77
2022/01/10 00:53:44;;;;;;;13.30;6.20;;;;;;;0.19;100.00;98474.00;5100642;28;20043;-78
2022/01/10 00:56:11;;;;;;;13.73;6.13;;;;;;;0.13;100.00;98473.53;5097886;28;20055;-77
2022/01/10 00:58:39;;;;;;;11.15;6.07;;;;;;;0.31;100.00;98489.78;5095796;28;20052;-77
2022/01/10 01:01:06;;;;;;;10.95;6.65;;;;;;;0.34;100.00;98499.34;5111401;28;20384;-78
2022/01/10 01:03:34;;;;;;;14.40;6.38;;;;;;;0.42;100.00;98499.53;5108715;28;20052;-77
2022/01/10 01:06:02;;;;;;;24.60;8.02;;;;;;;0.34;100.00;98505.53;5102867;28;20050;-77
2022/01/10 01:08:31;;;;;;;12.73;6.20;;;;;;;0.26;100.00;98494.69;5109445;28;20519;-78
2022/01/10 01:13:52;;;;;;;9.05;5.78;;;;;;;0.38;100.00;98508.81;5103158;28;20101;-78
2022/01/10 01:16:30;;;;;;;12.10;6.45;;;;;;;0.51;100.00;98513.88;5099093;27;20084;-77
2022/01/10 01:24:45;;;;;;;10.05;5.88;;;;;;;0.18;100.00;98518.56;5055965;28;20045;-77
2022/01/10 01:27:12;;;;;;;11.95;6.30;;;;;;;0.30;100.00;98538.03;5101098;28;20044;-77
2022/01/10 01:29:39;;;;;;;10.10;6.28;;;;;;;0.17;100.00;98520.41;5114415;28;20047;-77
2022/01/10 01:32:07;;;;;;;11.57;5.93;;;;;;;0.22;100.00;98525.34;5095470;28;20048;-78
2022/01/10 01:34:35;;;;;;;8.98;5.93;;;;;;;0.17;100.00;98525.75;5102019;28;20043;-78
2022/01/10 01:37:04;;;;;;;9.48;6.00;;;;;;;0.27;100.00;98538.31;5109871;28;20051;-78
2022/01/10 01:39:31;;;;;;;14.05;6.97;;;;;;;0.19;100.00;98524.78;5110943;28;20309;-78
2022/01/10 01:42:04;;;;;;;9.20;6.32;;;;;;;0.32;100.00;98557.47;5105351;28;20071;-78
2022/01/10 01:44:31;;;;;;;13.50;6.40;;;;;;;0.33;100.00;98554.66;5111698;28;20047;-78
2022/01/10 01:46:58;;;;;;;18.33;7.65;;;;;;;0.20;100.00;98543.34;5094889;28;20491;-78
2022/01/10 01:49:26;;;;;;;10.68;6.57;;;;;;;0.20;100.00;98554.06;5096259;28;20077;-77
2022/01/10 01:51:53;;;;;;;14.23;6.35;;;;;;;0.21;100.00;98557.56;5113684;27;20047;-77
2022/01/10 01:54:21;;;;;;;17.40;7.95;;;;;;;0.26;100.00;98574.06;5112427;28;20050;-77
2022/01/10 01:56:49;;;;;;;10.85;6.20;;;;;;;0.09;100.00;98554.13;5110896;28;20334;-77
2022/01/10 01:59:17;;;;;;;13.65;6.88;;;;;;;0.11;100.00;98569.06;5111857;28;20430;-78
2022/01/10 02:01:44;;;;;;;10.45;6.40;;;;;;;0.17;100.00;98571.19;5104795;28;20048;-77
2022/01/10 02:04:11;;;;;;;15.65;7.00;;;;;;;0.11;100.00;98571.72;5098206;28;20433;-77
2022/01/10 02:06:38;;;;;;;18.23;8.05;;;;;;;0.23;100.00;98582.34;5114218;28;20506;-78
2022/01/10 02:09:05;;;;;;;16.02;7.15;;;;;;;0.18;100.00;98569.34;5113400;28;20514;-77
2022/01/10 02:11:33;;;;;;;13.75;7.07;;;;;;;0.35;100.00;98586.63;5112223;28;20073;-78
2022/01/10 02:14:01;;;;;;;11.07;7.45;;;;;;;0.18;100.00;98564.00;5099688;28;20048;-77
2022/01/10 02:16:39;;;;;;;12.65;6.53;;;;;;;0.28;100.00;98577.44;5094925;28;20052;-77
2022/01/10 02:19:06;;;;;;;15.00;6.40;;;;;;;0.20;100.00;98575.44;5096374;28;20062;-78
2022/01/10 02:21:35;;;;;;;13.77;6.82;;;;;;;0.22;100.00;98588.66;5110101;28;20044;-77
2022/01/10 02:24:03;;;;;;;12.73;6.07;;;;;;;0.17;100.00;98591.75;5111756;28;20051;-78
2022/01/10 02:26:30;;;;;;;13.98;5.90;;;;;;;0.21;100.00;98592.31;5111199;28;20089;-77
2022/01/10 02:28:57;;;;;;;13.63;6.22;;;;;;;0.18;100.00;98588.06;5114140;28;20047;-77
2022/01/10 02:31:24;;;;;;;10.30;6.40;;;;;;;0.23;100.00;98599.22;5096021;28;20052;-77
2022/01/10 02:33:56;;;;;;;11.40;6.00;;;;;;;0.25;100.00;98609.78;5094126;28;20051;-77
2022/01/10 02:36:26;;;;;;;15.60;6.38;;;;;;;0.14;100.00;98600.03;5101137;28;20056;-77
2022/01/10 02:38:55;;;;;;;9.38;5.55;;;;;;;0.26;100.00;98616.84;5098102;28;20430;-77
2022/01/10 02:41:23;;;;;;;;;;;;;;;0.38;100.00;98623.78;5112750;28;20062;-77
2022/01/10 02:43:50;;;;;;;10.25;5.68;;;;;;;0.33;100.00;98626.00;5097911;28;20379;-77
2022/01/10 02:46:17;;;;;;;14.43;6.95;;;;;;;0.22;100.00;98621.59;5098790;28;20081;-77
2022/01/10 02:48:44;;;;;;;21.50;6.13;;;;;;;0.22;100.00;98631.44;5100709;28;20403;-77
2022/01/10 02:51:11;;;;;;;13.93;6.93;;;;;;;0.14;100.00;98611.56;5103574;28;20479;-79
2022/01/10 02:53:38;;;;;;;13.43;6.68;;;;;;;0.20;100.00;98622.69;5113328;28;20059;-77
2022/01/10 02:56:06;;;;;;;15.02;7.25;;;;;;;0.22;100.00;98632.28;5109190;28;20086;-77
2022/01/10 02:58:33;;;;;;;11.85;6.53;;;;;;;0.27;100.00;98635.44;5112773;28;20139;-77
2022/01/10 03:01:00;;;;;;;13.10;6.50;;;;;;;0.25;100.00;98640.03;5099380;28;20048;-77
2022/01/10 03:03:27;;;;;;;11.32;6.40;;;;;;;0.19;100.00;98643.25;5103051;28;20388;-77
2022/01/10 03:05:54;;;;;;;14.57;6.47;;;;;;;0.18;100.00;98644.22;5111803;28;20054;-77
2022/01/10 03:08:21;;;;;;;13.38;7.32;;;;;;;0.13;100.00;98636.59;5103198;28;20048;-77
2022/01/10 03:10:48;;;;;;;11.77;6.80;;;;;;;0.21;100.00;98652.00;5096727;28;20051;-77
2022/01/10 03:13:30;;;;;;;14.13;7.07;;;;;;;0.13;100.00;98657.13;5074826;27;20406;-78
2022/01/10 03:15:57;;;;;;;13.65;6.18;;;;;;;0.19;100.00;98661.97;5088516;28;20048;-78
2022/01/10 03:18:24;;;;;;;15.65;7.57;;;;;;;0.19;100.00;98659.28;5082140;28;20059;-78
2022/01/10 03:20:51;;;;;;;12.15;7.10;;;;;;;0.26;100.00;98673.81;5081683;28;20403;-78
2022/01/10 03:23:18;;;;;;;9.93;6.47;;;;;;;0.31;100.00;98676.09;5088922;28;20058;-78
2022/01/10 03:25:48;;;;;;;11.80;7.18;;;;;;;0.24;100.00;98677.59;5088034;28;20135;-78
2022/01/10 03:28:15;;;;;;;14.63;7.30;;;;;;;0.29;100.00;98678.91;5082298;28;20128;-78
2022/01/10 03:30:43;;;;;;;11.30;7.05;;;;;;;0.33;100.00;98691.03;5074224;28;20041;-78
2022/01/10 03:33:10;;;;;;;13.43;6.93;;;;;;;0.40;100.00;98695.88;5088619;28;20044;-78
2022/01/10 03:35:38;;;;;;;10.65;7.03;;;;;;;0.41;100.00;98701.06;5083492;28;20400;-78
2022/01/10 03:38:05;;;;;;;15.13;6.78;;;;;;;0.32;100.00;98689.34;5072078;28;20210;-78
2022/01/10 03:40:32;;;;;;;12.52;6.25;;;;;;;0.17;100.00;98675.44;5086711;28;20052;-78
2022/01/10 03:42:59;;;;;;;11.02;6.97;;;;;;;0.15;100.00;98693.47;5072202;28;20067;-78
2022/01/10 03:45:26;;;;;;;12.18;7.93;;;;;;;0.33;100.00;98708.91;5082045;28;20045;-78
2022/01/10 03:47:54;;;;;;;12.35;6.75;;;;;;;0.25;100.00;98698.84;5081846;28;20052;-78
2022/01/10 03:50:21;;;;;;;13.23;6.93;;;;;;;0.22;100.00;98687.59;5087974;28;20060;-78
2022/01/10 03:52:48;;;;;;;10.93;7.25;;;;;;;0.21;100.00;98696.56;5068602;28;20051;-78
2022/01/10 03:55:15;;;;;;;12.10;7.07;;;;;;;0.27;100.00;98704.94;5075201;28;20044;-78
2022/01/10 03:57:42;;;;;;;15.85;7.32;;;;;;;0.39;100.00;98720.91;5087782;28;20049;-78
2022/01/10 04:00:11;;;;;;;14.27;6.88;;;;;;;0.29;100.00;98708.31;5078656;28;20055;-79
2022/01/10 04:02:39;;;;;;;14.82;8.05;;;;;;;0.28;100.00;98706.63;5085378;28;20048;-78
2022/01/10 04:05:09;;;;;;;12.43;7.93;;;;;;;0.32;100.00;98717.91;5082152;28;20345;-78
2022/01/10 04:07:37;;;;;;;19.13;7.93;;;;;;;0.27;100.00;98715.63;5088119;28;20048;-78
2022/01/10 04:10:05;;;;;;;13.75;7.63;;;;;;;0.26;100.00;98727.31;5087957;28;20507;-78
2022/01/10 04:12:32;;;;;;;14.63;7.85;;;;;;;0.27;100.00;98718.31;5080529;28;20056;-78
2022/01/10 04:14:59;;;;;;;15.90;7.72;;;;;;;0.35;100.00;98723.00;5088341;28;20056;-78
2022/01/10 04:17:25;;;;;;;17.15;7.50;;;;;;;0.29;100.00;98719.00;5086618;28;20044;-78
2022/01/10 04:19:52;;;;;;;17.70;7.60;;;;;;;0.42;100.00;98734.88;5079490;28;20055;-78
2022/01/10 04:22:21;;;;;;;14.68;7.90;;;;;;;0.28;100.00;98728.00;5080878;28;20067;-78
2022/01/10 04:24:47;;;;;;;15.90;7.55;;;;;;;0.31;100.00;98737.59;5074675;28;20040;-78
2022/01/10 04:27:14;;;;;;;16.80;7.47;;;;;;;0.38;100.00;98741.47;5072867;28;20048;-78
2022/01/10 04:29:41;;;;;;;19.02;9.23;;;;;;;0.37;100.00;98752.28;5074254;28;20420;-78
2022/01/10 04:32:11;;;;;;;14.82;7.63;;;;;;;0.30;100.00;98739.44;5064131;28;20053;-78
2022/01/10 04:34:38;;;;;;;14.80;7.63;;;;;;;0.28;100.00;98751.22;5064318;28;20080;-78
2022/01/10 04:37:06;;;;;;;13.25;8.18;;;;;;;0.29;100.00;98751.09;5059814;28;20041;-78
2022/01/10 04:39:35;;;;;;;17.48;7.90;;;;;;;0.36;100.00;98762.13;5073363;28;20044;-78
2022/01/10 04:42:02;;;;;;;15.05;8.40;;;;;;;0.30;100.00;98759.97;5065671;28;20502;-78
2022/01/10 04:44:29;;;;;;;14.23;8.45;;;;;;;0.29;100.00;98763.63;5054651;28;20045;-78
2022/01/10 04:46:56;;;;;;;11.73;7.47;;;;;;;0.29;100.00;98767.16;5070935;28;20049;-78
2022/01/10 04:49:24;;;;;;;12.55;9.07;;;;;;;0.34;100.00;98780.97;5073077;28;20567;-78
2022/01/10 04:51:52;;;;;;;15.85;9.07;;;;;;;0.26;100.00;98767.41;5069263;28;20140;-78
2022/01/10 04:54:19;;;;;;;14.45;8.75;;;;;;;0.30;100.00;98790.25;5069736;28;20048;-78
2022/01/10 04:56:47;;;;;;;15.23;9.05;;;;;;;0.25;100.00;98786.25;5072147;28;20056;-78
2022/01/10 04:59:14;;;;;;;17.65;8.80;;;;;;;0.32;100.00;98804.31;5071823;28;20123;-78
2022/01/10 05:01:41;;;;;;;18.75;8.60;;;;;;;0.32;100.00;98801.66;5073431;28;20393;-81
2022/01/10 05:04:10;;;;;;;19.98;9.68;;;;;;;0.34;100.00;98812.22;5073555;28;20082;-83
2022/01/10 05:06:37;;;;;;;16.48;9.65;;;;;;;0.42;100.00;98820.47;5071801;28;20049;-78
2022/01/10 05:09:04;;;;;;;17.75;8.73;;;;;;;0.50;100.00;98828.66;5062697;28;20049;-80
2022/01/10 05:11:35;;;;;;;17.95;9.05;;;;;;;0.51;100.00;98827.69;5066496;28;20053;-80
2022/01/10 05:14:03;;;;;;;16.02;8.82;;;;;;;0.48;100.00;98822.63;5073277;28;20545;-80
2022/01/10 05:16:30;;;;;;;20.42;8.90;;;;;;;0.47;100.00;98830.78;5073119;28;20477;-80
2022/01/10 05:18:57;;;;;;;12.70;8.23;;;;;;;0.27;100.00;98827.06;5058640;28;20055;-80
2022/01/10 05:21:24;;;;;;;15.70;9.68;;;;;;;0.40;100.00;98845.63;5073469;28;20059;-80
2022/01/10 05:23:51;;;;;;;16.75;9.82;;;;;;;0.40;100.00;98854.47;5062111;28;20071;-80
2022/01/10 05:26:18;;;;;;;20.05;10.43;;;;;;;0.44;100.00;98855.09;5064588;28;20052;-79
2022/01/10 05:28:45;;;;;;;20.80;10.45;;;;;;;0.50;100.00;98850.06;5055004;28;20049;-80
2022/01/10 05:31:13;;;;;;;16.92;9.40;;;;;;;0.43;100.00;98845.38;5072141;28;20052;-79
2022/01/10 05:33:40;;;;;;;19.33;9.23;;;;;;;0.39;100.00;98857.28;5058552;28;20053;-80
2022/01/10 05:36:07;;;;;;;13.80;9.27;;;;;;;0.46;100.00;98866.50;5058587;28;20045;-80
2022/01/10 05:38:33;;;;;;;17.02;9.95;;;;;;;0.50;100.00;98875.97;5065182;28;20041;-80
2022/01/10 05:41:00;;;;;;;17.77;9.43;;;;;;;0.53;100.00;98876.56;5072979;28;20053;-80
2022/01/10 05:43:27;;;;;;;17.67;9.32;;;;;;;0.49;100.00;98874.28;5065567;28;20052;-79
2022/01/10 05:45:54;;;;;;;16.25;9.68;;;;;;;0.52;100.00;98872.19;5061452;28;20063;-79
2022/01/10 05:48:26;;;;;;;18.80;9.80;;;;;;;0.55;100.00;98880.94;5071301;28;20512;-79
2022/01/10 05:50:53;;;;;;;19.42;10.07;;;;;;;0.47;100.00;98881.59;5070021;28;20568;-79
2022/01/10 05:53:21;;;;;;;20.42;10.27;;;;;;;0.49;100.00;98890.31;5069758;28;20049;-80
2022/01/10 05:55:48;;;;;;;19.33;9.32;;;;;;;0.46;100.00;98890.56;5072601;28;20066;-80
2022/01/10 05:58:16;;;;;;;22.85;10.07;;;;;;;0.48;100.00;98896.63;5072172;28;20054;-79
2022/01/10 06:00:43;;;;;;;14.60;9.10;;;;;;;0.41;100.00;98896.31;5070168;28;20044;-80
2022/01/10 06:03:10;;;;;;;18.77;10.30;;;;;;;0.37;100.00;98900.22;5070645;28;20048;-79
2022/01/10 06:05:38;;;;;;;21.55;9.63;;;;;;;0.48;100.00;98915.38;5072955;28;20048;-79
2022/01/10 06:08:08;;;;;;;17.55;10.00;;;;;;;0.42;100.00;98911.38;5061805;28;20088;-80
2022/01/10 06:10:35;;;;;;;17.35;9.43;;;;;;;0.39;100.00;98922.31;5056208;28;20045;-80
2022/01/10 06:13:05;;;;;;;17.27;9.55;;;;;;;0.46;100.00;98926.19;5068410;28;20047;-79
2022/01/10 06:15:32;;;;;;;;;;;;;;;0.45;100.00;98937.00;5062151;28;20052;-80
2022/01/10 06:17:59;;;;;;;16.90;8.35;;;;;;;0.41;100.00;98932.91;5058831;28;19943;-79
2022/01/10 06:20:27;;;;;;;13.55;7.90;;;;;;;0.43;100.00;98950.50;5070988;28;20053;-80
2022/01/10 06:22:56;;;;;;;17.63;9.15;;;;;;;0.38;100.00;98950.06;5069435;28;20451;-80
2022/01/10 06:25:25;;;;;;;14.32;8.45;;;;;;;0.30;100.00;98958.72;5059010;28;20055;-80
2022/01/10 06:27:52;;;;;;;18.98;9.05;;;;;;;0.25;100.00;98963.56;5059729;28;20416;-79
2022/01/10 06:30:19;;;;;;;18.13;8.82;;;;;;;0.41;100.00;98967.69;5067060;28;20052;-80
2022/01/10 06:32:46;;;;;;;16.02;9.13;;;;;;;0.48;100.00;98982.22;5052547;28;20504;-80
2022/01/10 06:35:14;;;;;;;14.73;8.02;;;;;;;0.51;100.00;98973.94;5064477;28;20049;-80
2022/01/10 06:37:41;;;;;;;16.00;9.35;;;;;;;0.61;100.00;98987.44;5071860;28;20172;-80
2022/01/10 06:40:11;;;;;;;15.38;9.50;;;;;;;0.61;100.00;98987.44;5066324;28;20055;-80
2022/01/10 06:42:38;;;;;;;20.67;10.15;;;;;;;0.57;100.00;98994.00;5063622;28;20048;-80
2022/01/10 06:45:05;;;;;;;19.33;10.20;;;;;;;0.50;100.00;99002.53;5070125;28;20044;-80
2022/01/10 06:47:32;;;;;;;21.30;10.13;;;;;;;0.53;100.00;99007.63;5069763;28;20048;-79
2022/01/10 06:50:02;;;;;;;19.83;10.20;;;;;;;0.49;100.00;99006.19;5071533;28;20053;-84
2022/01/10 06:52:29;;;;;;;19.10;10.40;;;;;;;0.44;100.00;98991.50;5071172;28;20122;-80
2022/01/10 06:54:56;;;;;;;23.20;10.73;;;;;;;0.53;100.00;99014.81;5073256;28;20400;-80
2022/01/10 06:57:24;;;;;;;18.90;10.32;;;;;;;0.57;100.00;99016.25;5066228;28;20060;-80
2022/01/10 06:59:52;;;;;;;18.27;9.98;;;;;;;0.61;100.00;99020.38;5059001;28;20048;-79
2022/01/10 07:02:18;;;;;;;16.65;10.48;;;;;;;0.62;100.00;99038.16;5068291;28;20055;-80
2022/01/10 07:04:46;;;;;;;18.52;10.88;;;;;;;0.57;100.00;99036.81;5071406;28;20057;-79
2022/01/10 07:07:13;;;;;;;13.82;9.13;;;;;;;0.68;100.00;99044.84;5070390;28;20070;-80
2022/01/10 07:09:40;;;;;;;22.90;9.70;;;;;;;0.60;100.00;99055.28;5071009;28;20044;-79
2022/01/10 07:12:07;;;;;;;16.83;10.00;;;;;;;0.56;100.00;99053.84;5061937;28;20145;-79
2022/01/10 07:14:36;;;;;;;17.23;9.88;;;;;;;0.56;100.00;99060.06;5068914;28;20040;-79
2022/01/10 07:17:03;;;;;;;14.02;9.48;;;;;;;0.57;100.00;99064.41;5063065;28;20469;-79
2022/01/10 07:19:30;;;;;;;16.02;9.00;;;;;;;0.63;100.00;99063.94;5070022;28;20048;-79
2022/01/10 07:21:57;;;;;;;18.27;9.25;;;;;;;0.62;100.00;99080.13;5070628;28;20052;-79
2022/01/10 07:24:24;;;;;;;21.23;9.65;;;;;;;0.53;100.00;99074.50;5063407;28;20041;-79
2022/01/10 07:26:51;;;;;;;15.52;9.85;;;;;;;0.57;100.00;99091.16;5070692;28;20036;-80
2022/01/10 07:29:17;;;;;;;16.33;9.93;;;;;;;0.60;100.00;99096.25;5071357;28;20067;-79
2022/01/10 07:31:46;;;;;;;19.75;9.50;;;;;;;0.63;100.00;99100.53;5065733;28;20040;-79
2022/01/10 07:34:15;;;;;;;21.23;9.55;;;;;;;0.68;100.00;99112.56;5061114;28;20045;-79
2022/01/10 07:36:42;;;;;;;20.25;9.35;;;;;;;0.61;100.00;99095.31;5070979;28;20052;-80
2022/01/10 07:39:11;;;;;;;14.05;8.85;;;;;;;0.72;100.00;99118.50;5069158;28;20056;-80
2022/01/10 07:41:38;;;;;;;19.23;10.05;;;;;;;0.75;100.00;99125.44;5067649;28;20045;-79
2022/01/10 07:44:06;;;;;;;22.30;10.65;;;;;;;0.80;100.00;99126.78;5059362;28;20049;-79
2022/01/10 07:46:33;;;;;;;23.55;11.00;;;;;;;0.87;100.00;99132.50;5063473;28;20045;-79
2022/01/10 07:49:01;;;;;;;21.60;10.48;;;;;;;0.90;100.00;99140.25;5062716;28;20045;-79
2022/01/10 07:51:28;;;;;;;16.85;9.15;;;;;;;0.95;100.00;99145.25;5063941;28;20051;-80
2022/01/10 07:53:56;;;;;;;18.77;10.43;;;;;;;0.91;100.00;99143.81;5062435;28;20048;-79
2022/01/10 07:56:23;;;;;;;24.05;10.85;;;;;;;1.02;100.00;99152.69;5060093;28;20049;-79
2022/01/10 07:58:51;;;;;;;16.63;10.00;;;;;;;0.99;100.00;99147.56;5068779;28;20055;-79
2022/01/10 08:01:19;;;;;;;21.35;9.80;;;;;;;0.95;100.00;99154.16;5070054;28;20055;-79
2022/01/10 08:03:46;;;;;;;20.15;9.88;;;;;;;1.01;100.00;99152.78;5071860;28;20045;-79
2022/01/10 08:06:14;;;;;;;16.63;9.23;;;;;;;0.98;100.00;99153.03;5070131;28;20314;-79
2022/01/10 08:08:41;;;;;;;14.20;9.13;;;;;;;1.08;100.00;99163.84;5069080;28;20049;-79
2022/01/10 08:11:08;;;;;;;17.52;9.88;;;;;;;1.06;100.00;99153.28;5069933;28;20048;-80
2022/01/10 08:13:35;;;;;;;24.08;11.38;;;;;;;1.18;100.00;99167.50;5072374;28;20036;-80
2022/01/10 08:16:02;;;;;;;21.25;11.13;;;;;;;1.15;100.00;99170.44;5069317;28;20055;-79
2022/01/10 08:18:30;;;;;;;17.48;8.05;;;;;;;1.20;100.00;99182.44;5069906;28;20045;-80
2022/01/10 08:20:57;;;;;;;17.90;9.30;;;;;;;1.21;100.00;99167.25;5066370;28;20045;-79
2022/01/10 08:23:29;;;;;;;18.25;9.18;;;;;;;1.33;100.00;99194.84;5071087;28;20436;-80
2022/01/10 08:25:56;;;;;;;22.38;10.13;;;;;;;1.23;100.00;99184.03;5075921;28;20053;-79
2022/01/10 08:28:22;;;;;;;24.42;9.73;;;;;;;1.31;100.00;99194.97;5063122;28;20053;-80
2022/01/10 08:30:49;;;;;;;16.52;9.82;;;;;;;1.38;100.00;99200.69;5055832;28;20492;-79
2022/01/10 08:33:16;;;;;;;24.00;11.65;;;;;;;1.35;100.00;99192.88;5055849;28;20041;-80
2022/01/10 08:35:43;;;;;;;23.55;12.07;;;;;;;1.47;100.00;99210.63;5071980;28;20056;-80
2022/01/10 08:38:10;;;;;;;19.70;10.88;;;;;;;1.34;100.00;99193.84;5069365;28;20041;-80
2022/01/10 08:40:38;;;;;;;23.90;9.68;;;;;;;1.41;100.00;99213.81;5073552;28;20048;-79
2022/01/10 08:43:10;;;;;;;27.42;9.32;;;;;;;1.42;100.00;99207.50;5075405;28;20044;-80
2022/01/10 08:45:37;;;;;;;39.22;13.57;;;;;;;1.47;100.00;99213.31;5075657;28;20507;-79
2022/01/10 08:48:05;;;;;;;26.17;13.32;;;;;;;1.54;100.00;99233.28;5075429;28;20128;-80
2022/01/10 08:50:33;;;;;;;17.88;9.65;;;;;;;1.59;100.00;99231.06;5075221;28;20063;-79
2022/01/10 08:53:02;;;;;;;21.33;8.85;;;;;;;1.79;100.00;99235.75;5069626;28;20132;-79
2022/01/10 08:55:31;;;;;;;17.88;8.95;;;;;;;1.80;100.00;99240.16;5065115;28;20064;-79
2022/01/10 08:57:59;;;;;;;16.57;7.87;;;;;;;1.59;100.00;99235.56;5070978;28;20036;-80
2022/01/10 09:00:26;;;;;;;18.92;8.98;;;;;;;1.59;100.00;99225.69;5073555;28;20474;-79
2022/01/10 09:02:54;;;;;;;20.92;8.68;;;;;;;1.58;100.00;99236.53;5055293;28;20057;-79
2022/01/10 09:05:20;;;;;;;17.95;8.45;;;;;;;1.55;100.00;99245.72;5058935;28;20049;-79
2022/01/10 09:07:48;;;;;;;14.43;6.55;;;;;;;1.58;100.00;99247.25;5072579;28;20052;-79
2022/01/10 09:10:15;;;;;;;17.60;9.30;;;;;;;1.69;100.00;99263.34;5072935;28;20052;-80
2022/01/10 09:12:42;;;;;;;23.48;12.07;;;;;;;1.75;100.00;99270.88;5072674;28;20543;-79
2022/01/10 09:15:13;;;;;;;30.25;11.55;;;;;;;1.72;100.00;99281.00;5073499;28;20437;-79
2022/01/10 09:17:40;;;;;;;25.52;11.70;;;;;;;1.81;100.00;99271.31;5066151;28;20037;-79
2022/01/10 09:20:07;;;;;;;29.65;11.45;;;;;;;1.90;100.00;99284.84;5072996;28;20052;-79
2022/01/10 09:22:34;;;;;;;22.48;11.73;;;;;;;1.83;100.00;99294.34;5053783;28;20044;-80
2022/01/10 09:25:01;;;;;;;23.42;10.88;;;;;;;1.79;100.00;99289.38;5068315;28;20074;-79
2022/01/10 09:27:28;;;;;;;25.63;11.95;;;;;;;2.00;100.00;99300.16;5054242;28;20068;-80
2022/01/10 09:29:55;;;;;;;18.13;10.50;;;;;;;1.90;100.00;99306.28;5061143;28;20048;-80
2022/01/10 09:32:24;;;;;;;21.80;9.98;;;;;;;1.95;100.00;99304.06;5055156;28;20087;-80
2022/01/10 09:34:51;;;;;;;16.02;8.80;;;;;;;1.90;100.00;99321.53;5067719;28;20040;-80
2022/01/10 09:37:17;;;;;;;20.25;10.60;;;;;;;1.91;100.00;99305.31;5056162;28;20412;-80
2022/01/10 09:39:44;;;;;;;17.95;9.60;;;;;;;2.01;100.00;99318.81;5055651;28;20408;-80
2022/01/10 09:42:12;;;;;;;22.63;9.85;;;;;;;2.15;100.00;99328.38;5057666;28;20049;-80
2022/01/10 09:44:40;;;;;;;24.67;8.70;;;;;;;1.94;100.00;99306.88;5053356;28;20081;-80
2022/01/10 09:47:07;;;;;;;22.17;8.80;;;;;;;1.95;100.00;99322.84;5067619;28;20057;-80
2022/01/10 09:49:35;;;;;;;25.95;9.75;;;;;;;2.06;100.00;99332.69;5073381;28;20089;-80
2022/01/10 09:52:02;;;;;;;22.60;9.70;;;;;;;2.32;100.00;99337.72;5069803;28;20056;-79
2022/01/10 09:54:29;;;;;;;25.92;10.95;;;;;;;2.48;100.00;99339.97;5056314;28;20045;-80
2022/01/10 09:56:56;;;;;;;23.23;10.27;;;;;;;2.57;100.00;99335.66;5058618;28;20044;-79
2022/01/10 09:59:23;;;;;;;19.63;9.15;;;;;;;2.38;100.00;99337.22;5072617;28;20048;-80
2022/01/10 10:01:50;;;;;;;20.63;10.23;;;;;;;2.34;100.00;99341.13;5062022;28;20056;-79
2022/01/10 10:04:18;;;;;;;24.17;11.38;;;;;;;2.25;100.00;99336.53;5072421;28;20500;-79
2022/01/10 10:06:48;;;;;;;25.33;11.93;;;;;;;2.32;100.00;99344.91;5072687;28;20051;-79
2022/01/10 10:09:16;;;;;;;27.33;10.90;;;;;;;2.34;100.00;99349.19;5065236;28;20045;-80
2022/01/10 10:11:44;;;;;;;27.35;11.70;;;;;;;2.30;100.00;99345.03;5070485;28;20052;-79
2022/01/10 10:14:18;;;;;;;22.17;10.25;;;;;;;2.34;100.00;99359.91;5072220;28;20408;-79
2022/01/10 10:16:49;;;;;;;23.60;10.98;;;;;;;2.38;100.00;99355.13;5072644;28;20048;-80
2022/01/10 10:19:18;;;;;;;25.45;11.85;;;;;;;2.40;100.00;99358.56;5072337;28;20044;-80
2022/01/10 10:21:45;;;;;;;21.70;11.05;;;;;;;2.60;100.00;99359.56;5071618;28;20053;-80
2022/01/10 10:24:14;;;;;;;19.55;10.50;;;;;;;2.44;100.00;99352.81;5072041;28;20052;-80
2022/01/10 10:26:42;;;;;;;25.98;11.15;;;;;;;2.63;100.00;99372.72;5062236;28;20053;-80
2022/01/10 10:29:13;;;;;;;26.58;10.57;;;;;;;2.57;100.00;99365.19;5052474;28;20048;-80
2022/01/10 10:31:45;;;;;;;21.77;10.60;;;;;;;2.56;100.00;99382.25;5063836;28;20064;-80
2022/01/10 10:34:12;;;;;;;22.35;9.88;;;;;;;2.75;100.00;99373.53;5072406;28;20040;-80
2022/01/10 10:36:40;;;;;;;30.95;10.48;;;;;;;2.58;100.00;99374.94;5071970;28;20135;-79
2022/01/10 10:39:10;;;;;;;28.27;10.73;;;;;;;2.52;100.00;99373.63;5072288;28;20060;-80
2022/01/10 10:41:39;;;;;;;;;;;;;;;2.60;100.00;99378.34;5071079;28;20055;-80
2022/01/10 10:44:06;;;;;;;20.02;9.50;;;;;;;2.70;100.00;99383.81;5071619;28;19924;-80
2022/01/10 10:46:36;;;;;;;18.75;10.10;;;;;;;2.76;100.00;99386.81;5072254;28;20049;-80
2022/01/10 10:49:04;;;;;;;26.70;10.27;;;;;;;2.77;100.00;99376.91;5071625;28;20412;-80
2022/01/10 10:51:33;;;;;;;18.58;9.32;;;;;;;2.85;100.00;99376.28;5069444;28;20512;-80
2022/01/10 10:54:04;;;;;;;24.77;10.17;;;;;;;2.82;100.00;99377.41;5059813;28;20040;-80
2022/01/10 10:56:35;;;;;;;27.05;10.13;;;;;;;2.80;100.00;99388.28;5070386;28;20294;-80
2022/01/10 10:59:03;;;;;;;18.33;8.93;;;;;;;2.80;100.00;99392.78;5057734;28;20041;-80
2022/01/10 11:01:30;;;;;;;29.70;10.18;;;;;;;2.71;100.00;99388.19;5065525;28;20394;-80
2022/01/10 11:03:57;;;;;;;14.88;8.85;;;;;;;2.83;100.00;99390.69;5059742;28;20073;-80
2022/01/10 11:06:28;;;;;;;21.75;9.75;;;;;;;2.85;100.00;99397.78;5071745;28;20055;-80
2022/01/10 11:08:56;;;;;;;21.75;9.27;;;;;;;2.95;100.00;99406.72;5064102;28;20155;-80
2022/01/10 11:11:23;;;;;;;18.63;8.80;;;;;;;2.95;100.00;99406.72;5070883;28;20140;-80
2022/01/10 11:13:55;;;;;;;22.77;10.40;;;;;;;2.91;100.00;99408.84;5052217;28;20053;-80
2022/01/10 11:16:24;;;;;;;22.27;9.43;;;;;;;2.91;100.00;99405.31;5062812;28;20135;-80
2022/01/10 11:18:51;;;;;;;18.25;7.70;;;;;;;3.00;100.00;99415.28;5071190;28;20053;-79
2022/01/10 11:21:18;;;;;;;19.58;8.68;;;;;;;2.92;100.00;99417.75;5071636;28;20052;-80
2022/01/10 11:23:48;;;;;;;20.90;8.18;;;;;;;3.11;100.00;99422.41;5070418;28;20055;-80
2022/01/10 11:26:17;;;;;;;15.35;8.23;;;;;;;2.91;100.00;99438.38;5071739;28;20055;-80
2022/01/10 11:28:49;;;;;;;19.42;8.50;;;;;;;2.85;100.00;99422.78;5067954;28;20059;-80
2022/01/10 11:31:21;;;;;;;18.73;7.85;;;;;;;2.91;100.00;99448.28;5071599;28;20049;-80
2022/01/10 11:33:50;;;;;;;20.65;8.27;;;;;;;2.98;100.00;99444.94;5064183;28;20060;-80
2022/01/10 11:36:20;;;;;;;17.67;9.05;;;;;;;3.01;100.00;99451.88;5075858;28;20065;-80